createdAt,value
2018-06-20T00:00:01.268Z,19.60
2018-06-20T00:02:29.659Z,19.50
2018-06-20T00:04:58.055Z,19.40
2018-06-20T00:07:26.444Z,19.50
2018-06-20T00:09:54.870Z,19.50
2018-06-20T00:12:23.259Z,19.60
2018-06-20T00:14:51.620Z,19.50
2018-06-20T00:17:21.203Z,19.60
2018-06-20T00:19:49.608Z,19.50
2018-06-20T00:24:46.069Z,19.40
2018-06-20T00:27:14.451Z,19.40
2018-06-20T00:29:43.084Z,19.40
2018-06-20T00:32:11.469Z,19.40
2018-06-20T00:34:39.898Z,19.40
2018-06-20T00:37:08.272Z,19.50
2018-06-20T00:39:36.679Z,19.40
2018-06-20T00:42:05.022Z,19.40
2018-06-20T00:47:01.507Z,19.40
2018-06-20T00:49:29.917Z,19.40
2018-06-20T00:51:58.404Z,19.40
2018-06-20T00:54:26.815Z,19.40
2018-06-20T00:56:55.207Z,19.40
2018-06-20T00:59:23.962Z,19.40
2018-06-20T01:01:52.324Z,19.40
2018-06-20T01:04:20.746Z,19.40
2018-06-20T01:06:49.163Z,19.30
2018-06-20T01:09:17.560Z,19.30
2018-06-20T01:11:46.821Z,19.20
2018-06-20T01:14:15.190Z,19.10
2018-06-20T01:16:43.570Z,19.00
2018-06-20T01:19:11.944Z,18.80
2018-06-20T01:21:40.290Z,18.80
2018-06-20T01:24:08.816Z,18.70
2018-06-20T01:26:37.186Z,18.70
2018-06-20T01:31:33.747Z,18.70
2018-06-20T01:34:02.115Z,18.70
2018-06-20T01:38:58.632Z,18.60
2018-06-20T01:41:27.201Z,18.60
2018-06-20T01:43:55.605Z,18.60
2018-06-20T01:46:23.963Z,18.60
2018-06-20T01:48:52.294Z,18.60
2018-06-20T01:51:20.644Z,18.60
2018-06-20T01:53:48.982Z,18.60
2018-06-20T01:56:17.381Z,18.60
2018-06-20T01:58:45.729Z,18.70
2018-06-20T02:01:14.082Z,18.70
2018-06-20T02:03:42.429Z,18.80
2018-06-20T02:06:10.834Z,18.80
2018-06-20T02:11:07.336Z,18.80
2018-06-20T02:13:35.683Z,18.90
2018-06-20T02:16:04.057Z,19.00
2018-06-20T02:18:32.409Z,19.00
2018-06-20T02:21:00.823Z,19.00
2018-06-20T02:23:29.215Z,19.00
2018-06-20T02:25:57.676Z,19.00
2018-06-20T02:28:26.041Z,19.00
2018-06-20T02:30:54.503Z,19.00
2018-06-20T02:33:22.850Z,18.90
2018-06-20T02:35:51.241Z,18.90
2018-06-20T02:38:19.590Z,18.90
2018-06-20T02:40:47.965Z,18.90
2018-06-20T02:43:16.368Z,18.80
2018-06-20T02:45:44.767Z,18.80
2018-06-20T02:48:13.145Z,18.70
2018-06-20T02:50:41.537Z,18.60
2018-06-20T02:53:09.921Z,18.50
2018-06-20T02:55:38.289Z,18.40
2018-06-20T02:58:06.825Z,18.20
2018-06-20T03:00:35.209Z,18.30
2018-06-20T03:03:03.591Z,18.30
2018-06-20T03:05:32.025Z,18.40
2018-06-20T03:08:00.460Z,18.40
2018-06-20T03:10:28.999Z,18.40
2018-06-20T03:17:54.035Z,18.40
2018-06-20T03:20:22.439Z,18.40
2018-06-20T03:22:50.825Z,18.50
2018-06-20T03:25:19.234Z,18.50
2018-06-20T03:27:47.628Z,18.50
2018-06-20T03:30:16.088Z,18.50
2018-06-20T03:32:44.512Z,18.60
2018-06-20T03:35:12.882Z,18.60
2018-06-20T03:37:41.345Z,18.60
2018-06-20T03:40:09.778Z,18.60
2018-06-20T03:42:38.207Z,18.60
2018-06-20T03:45:07.697Z,18.60
2018-06-20T03:47:36.086Z,18.60
2018-06-20T03:50:04.495Z,18.60
2018-06-20T03:52:32.966Z,18.50
2018-06-20T03:55:01.424Z,18.50
2018-06-20T03:57:29.798Z,18.60
2018-06-20T03:59:58.145Z,18.60
2018-06-20T04:02:26.693Z,18.60
2018-06-20T04:04:55.076Z,18.60
2018-06-20T04:07:24.317Z,18.70
2018-06-20T04:09:52.670Z,18.70
2018-06-20T04:12:21.129Z,18.80
2018-06-20T04:14:49.565Z,18.80
2018-06-20T04:17:17.919Z,18.80
2018-06-20T04:19:46.347Z,18.80
2018-06-20T04:22:14.743Z,18.70
2018-06-20T04:24:43.161Z,18.80
2018-06-20T04:27:11.544Z,18.80
2018-06-20T04:29:39.955Z,18.90
2018-06-20T04:32:08.405Z,19.00
2018-06-20T04:34:36.841Z,19.10
2018-06-20T04:37:05.178Z,19.10
2018-06-20T04:39:33.535Z,19.10
2018-06-20T04:42:01.968Z,19.20
2018-06-20T04:44:30.387Z,19.10
2018-06-20T04:49:26.834Z,19.00
2018-06-20T04:51:55.184Z,18.90
2018-06-20T04:54:23.541Z,18.90
2018-06-20T04:56:51.920Z,18.90
2018-06-20T04:59:20.284Z,18.90
2018-06-20T05:01:48.653Z,18.90
2018-06-20T05:04:17.172Z,18.90
2018-06-20T05:06:45.564Z,18.90
2018-06-20T05:09:19.967Z,18.80
2018-06-20T05:11:50.078Z,18.80
2018-06-20T05:14:19.310Z,18.90
2018-06-20T05:16:47.759Z,18.90
2018-06-20T05:19:16.160Z,18.90
2018-06-20T05:21:44.521Z,18.90
2018-06-20T05:24:12.925Z,19.00
2018-06-20T05:26:41.426Z,19.00
2018-06-20T05:29:10.419Z,19.00
2018-06-20T05:31:38.776Z,19.10
2018-06-20T05:34:07.170Z,19.20
2018-06-20T05:36:35.579Z,19.20
2018-06-20T05:39:06.030Z,19.20
2018-06-20T05:41:34.436Z,19.20
2018-06-20T05:44:02.827Z,19.20
2018-06-20T05:46:31.258Z,19.20
2018-06-20T05:48:59.761Z,19.30
2018-06-20T05:51:28.163Z,19.30
2018-06-20T05:53:56.592Z,19.40
2018-06-20T05:56:24.965Z,19.50
2018-06-20T06:01:21.581Z,19.60
2018-06-20T06:03:50.028Z,19.70
2018-06-20T06:06:18.528Z,19.50
2018-06-20T06:08:46.968Z,19.50
2018-06-20T06:11:15.380Z,19.50
2018-06-20T06:13:43.764Z,19.50
2018-06-20T06:16:12.156Z,19.60
2018-06-20T06:18:40.530Z,19.70
2018-06-20T06:21:08.968Z,19.70
2018-06-20T06:23:37.354Z,19.90
2018-06-20T06:26:05.793Z,20.00
2018-06-20T06:28:34.198Z,20.00
2018-06-20T06:31:02.607Z,20.00
2018-06-20T06:33:30.984Z,20.00
2018-06-20T06:35:59.439Z,20.10
2018-06-20T06:38:27.819Z,20.10
2018-06-20T06:40:56.272Z,20.00
2018-06-20T06:43:24.646Z,20.20
2018-06-20T06:45:53.093Z,20.20
2018-06-20T06:48:21.452Z,20.40
2018-06-20T06:50:49.902Z,20.60
2018-06-20T06:53:18.287Z,20.70
2018-06-20T06:55:46.796Z,20.80
2018-06-20T07:00:43.406Z,20.80
2018-06-20T07:03:11.812Z,21.10
2018-06-20T07:05:40.216Z,21.20
2018-06-20T07:08:08.933Z,21.20
2018-06-20T07:10:37.443Z,21.20
2018-06-20T07:13:05.796Z,21.30
2018-06-20T07:15:34.301Z,21.40
2018-06-20T07:18:02.555Z,21.60
2018-06-20T07:20:42.808Z,21.50
2018-06-20T07:23:11.390Z,21.40
2018-06-20T07:25:39.994Z,21.40
2018-06-20T07:28:08.557Z,21.50
2018-06-20T07:30:36.953Z,21.60
2018-06-20T07:33:05.570Z,21.70
2018-06-20T07:35:33.970Z,21.80
2018-06-20T07:38:02.362Z,22.00
2018-06-20T07:40:30.750Z,22.00
2018-06-20T07:42:59.153Z,22.10
2018-06-20T07:45:27.548Z,22.10
2018-06-20T07:47:56.062Z,22.20
2018-06-20T07:50:24.472Z,22.20
2018-06-20T07:52:52.912Z,22.20
2018-06-20T07:55:21.335Z,22.20
2018-06-20T07:57:50.053Z,22.40
2018-06-20T08:00:23.751Z,22.50
2018-06-20T08:03:08.987Z,22.50
2018-06-20T08:05:42.845Z,22.60
2018-06-20T08:08:16.603Z,22.60
2018-06-20T08:10:50.321Z,22.80
2018-06-20T08:13:23.999Z,22.70
2018-06-20T08:15:57.725Z,22.80
2018-06-20T08:18:31.459Z,22.80
2018-06-20T08:20:59.851Z,22.70
2018-06-20T08:23:28.298Z,22.70
2018-06-20T08:25:56.763Z,22.60
2018-06-20T08:28:25.279Z,22.70
2018-06-20T08:30:53.671Z,22.80
2018-06-20T08:33:22.076Z,22.80
2018-06-20T08:35:50.570Z,23.00
2018-06-20T08:38:18.999Z,23.00
2018-06-20T08:40:47.677Z,23.00
2018-06-20T08:43:16.071Z,23.00
2018-06-20T08:45:44.647Z,22.90
2018-06-20T08:48:13.083Z,23.10
2018-06-20T08:50:41.509Z,23.10
2018-06-20T08:53:09.892Z,23.30
2018-06-20T08:55:38.312Z,23.40
2018-06-20T08:58:06.683Z,23.30
2018-06-20T09:00:40.466Z,23.50
2018-06-20T09:03:08.908Z,23.50
2018-06-20T09:05:42.716Z,23.40
2018-06-20T09:08:16.678Z,23.50
2018-06-20T09:10:51.123Z,23.70
2018-06-20T09:13:24.931Z,23.90
2018-06-20T09:15:59.128Z,24.00
2018-06-20T09:18:32.795Z,23.90
2018-06-20T09:21:01.225Z,24.10
2018-06-20T09:23:29.666Z,24.20
2018-06-20T09:25:58.214Z,24.50
2018-06-20T09:28:26.821Z,24.30
2018-06-20T09:30:55.309Z,24.30
2018-06-20T09:33:23.744Z,24.20
2018-06-20T09:35:52.205Z,24.30
2018-06-20T09:38:20.667Z,24.30
2018-06-20T09:40:49.089Z,24.50
2018-06-20T09:43:17.502Z,24.90
2018-06-20T09:45:46.019Z,24.90
2018-06-20T09:48:14.461Z,25.10
2018-06-20T09:50:48.127Z,25.60
2018-06-20T09:53:16.586Z,25.80
2018-06-20T09:55:45.017Z,26.10
2018-06-20T09:58:13.474Z,25.80
2018-06-20T10:00:54.141Z,25.70
2018-06-20T10:03:28.200Z,25.80
2018-06-20T10:06:02.653Z,25.80
2018-06-20T10:08:37.113Z,25.60
2018-06-20T10:11:10.850Z,25.60
2018-06-20T10:13:44.636Z,25.80
2018-06-20T10:16:13.078Z,25.90
2018-06-20T10:18:41.523Z,26.00
2018-06-20T10:21:10.086Z,25.50
2018-06-20T10:23:38.420Z,25.20
2018-06-20T10:26:06.808Z,24.80
2018-06-20T10:28:35.291Z,24.80
2018-06-20T10:31:03.742Z,24.90
2018-06-20T10:33:32.159Z,24.90
2018-06-20T10:36:00.530Z,24.90
2018-06-20T10:38:29.290Z,25.20
2018-06-20T10:40:57.673Z,25.10
2018-06-20T10:43:26.141Z,24.80
2018-06-20T10:48:02.223Z,24.50
2018-06-20T10:50:30.677Z,24.20
2018-06-20T10:52:59.266Z,24.30
2018-06-20T10:55:27.794Z,24.50
2018-06-20T10:58:01.759Z,24.70
2018-06-20T11:00:35.698Z,25.10
2018-06-20T11:03:09.581Z,25.20
2018-06-20T11:05:43.295Z,25.20
2018-06-20T11:08:17.157Z,25.40
2018-06-20T11:10:50.911Z,25.30
2018-06-20T11:13:19.343Z,25.30
2018-06-20T11:15:47.752Z,25.30
2018-06-20T11:18:16.173Z,25.60
2018-06-20T11:20:49.929Z,25.70
2018-06-20T11:23:18.492Z,25.90
2018-06-20T11:25:46.833Z,26.00
2018-06-20T11:28:16.425Z,26.10
2018-06-20T11:30:47.268Z,26.00
2018-06-20T11:33:16.344Z,25.90
2018-06-20T11:35:44.854Z,26.20
2018-06-20T11:38:13.247Z,26.20
2018-06-20T11:40:41.697Z,26.10
2018-06-20T11:43:10.043Z,25.90
2018-06-20T11:45:43.702Z,25.90
2018-06-20T11:48:12.097Z,25.90
2018-06-20T11:50:40.515Z,26.00
2018-06-20T11:53:10.025Z,26.30
2018-06-20T11:55:43.264Z,26.40
2018-06-20T11:58:17.172Z,26.50
2018-06-20T12:00:51.974Z,26.40
2018-06-20T12:03:25.677Z,26.20
2018-06-20T12:05:59.357Z,26.30
2018-06-20T12:08:33.088Z,26.70
2018-06-20T12:11:06.897Z,27.10
2018-06-20T12:13:40.493Z,27.10
2018-06-20T12:16:14.350Z,26.80
2018-06-20T12:18:48.185Z,26.40
2018-06-20T12:21:21.869Z,26.70
2018-06-20T12:23:55.565Z,26.80
2018-06-20T12:26:29.219Z,26.70
2018-06-20T12:29:03.112Z,26.80
2018-06-20T12:31:36.762Z,26.50
2018-06-20T12:34:10.445Z,26.40
2018-06-20T12:36:44.137Z,26.60
2018-06-20T12:39:12.680Z,26.40
2018-06-20T12:41:46.364Z,25.90
2018-06-20T12:44:20.238Z,26.00
2018-06-20T12:46:54.507Z,25.90
2018-06-20T12:49:28.040Z,25.90
2018-06-20T12:51:56.541Z,26.10
2018-06-20T12:54:25.138Z,26.10
2018-06-20T12:56:53.602Z,26.50
2018-06-20T12:59:21.967Z,26.60
2018-06-20T13:01:50.382Z,26.80
2018-06-20T13:04:18.765Z,27.10
2018-06-20T13:09:21.928Z,27.40
2018-06-20T13:11:50.431Z,27.90
2018-06-20T13:14:18.846Z,28.10
2018-06-20T13:16:47.289Z,28.30
2018-06-20T13:19:15.680Z,28.10
2018-06-20T13:21:44.093Z,28.00
2018-06-20T13:24:12.492Z,27.90
2018-06-20T13:26:40.976Z,28.00
2018-06-20T13:31:43.038Z,28.10
2018-06-20T13:34:16.686Z,28.30
2018-06-20T13:36:50.380Z,28.30
2018-06-20T13:39:24.173Z,28.50
2018-06-20T13:41:57.922Z,28.70
2018-06-20T13:44:27.814Z,28.90
2018-06-20T13:47:06.559Z,29.40
2018-06-20T13:49:34.987Z,29.90
2018-06-20T13:52:03.526Z,30.10
2018-06-20T13:54:31.860Z,29.70
2018-06-20T13:57:00.251Z,29.50
2018-06-20T13:59:28.684Z,29.40
2018-06-20T14:01:57.089Z,29.40
2018-06-20T14:04:25.485Z,29.70
2018-06-20T14:06:53.882Z,28.90
2018-06-20T14:09:22.337Z,28.40
2018-06-20T14:11:50.833Z,28.40
2018-06-20T14:14:19.183Z,28.60
2018-06-20T14:16:47.596Z,28.80
2018-06-20T14:19:16.086Z,28.90
2018-06-20T14:21:44.672Z,29.00
2018-06-20T14:24:13.153Z,28.90
2018-06-20T14:26:42.185Z,28.60
2018-06-20T14:29:12.869Z,28.70
2018-06-20T14:31:46.695Z,28.80
2018-06-20T14:34:20.676Z,29.00
2018-06-20T14:36:54.452Z,29.40
2018-06-20T14:41:32.132Z,29.60
2018-06-20T14:44:05.648Z,29.80
2018-06-20T14:46:33.998Z,29.30
2018-06-20T14:49:02.518Z,28.90
2018-06-20T14:51:30.994Z,28.90
2018-06-20T14:53:59.393Z,28.80
2018-06-20T14:56:27.834Z,28.40
2018-06-20T14:58:56.222Z,28.30
2018-06-20T15:01:24.597Z,28.30
2018-06-20T15:03:53.026Z,28.60
2018-06-20T15:06:21.433Z,29.00
2018-06-20T15:08:49.897Z,29.20
2018-06-20T15:11:18.408Z,29.20
2018-06-20T15:13:46.817Z,29.30
2018-06-20T15:16:20.689Z,29.10
2018-06-20T15:18:49.056Z,29.00
2018-06-20T15:21:17.476Z,29.00
2018-06-20T15:23:45.925Z,29.40
2018-06-20T15:26:19.735Z,29.40
2018-06-20T15:28:53.435Z,29.70
2018-06-20T15:31:27.324Z,30.20
2018-06-20T15:35:02.952Z,29.90
2018-06-20T15:37:36.919Z,29.40
2018-06-20T15:40:05.404Z,29.50
2018-06-20T15:42:33.891Z,29.20
2018-06-20T15:45:02.286Z,29.10
2018-06-20T15:47:30.765Z,29.00
2018-06-20T15:49:59.219Z,29.20
2018-06-20T15:52:27.653Z,29.10
2018-06-20T15:54:56.177Z,29.10
2018-06-20T15:57:24.915Z,29.20
2018-06-20T15:59:53.388Z,29.10
2018-06-20T16:02:21.966Z,29.20
2018-06-20T16:04:50.414Z,29.00
2018-06-20T16:07:19.056Z,28.80
2018-06-20T16:09:53.061Z,28.90
2018-06-20T16:12:21.593Z,28.60
2018-06-20T16:14:50.355Z,28.70
2018-06-20T16:17:19.253Z,28.80
2018-06-20T16:20:50.716Z,28.80
2018-06-20T16:23:24.463Z,28.70
2018-06-20T16:25:58.368Z,28.60
2018-06-20T16:28:32.520Z,28.30
2018-06-20T16:31:01.069Z,28.40
2018-06-20T16:33:29.517Z,28.50
2018-06-20T16:35:57.942Z,28.60
2018-06-20T16:38:26.428Z,28.20
2018-06-20T16:40:54.890Z,28.30
2018-06-20T16:43:23.343Z,28.10
2018-06-20T16:45:51.764Z,28.00
2018-06-20T16:48:20.203Z,27.90
2018-06-20T16:50:48.584Z,28.00
2018-06-20T16:53:17.032Z,27.90
2018-06-20T16:55:45.527Z,27.80
2018-06-20T16:58:14.045Z,27.80
2018-06-20T17:00:42.441Z,27.70
2018-06-20T17:03:10.933Z,27.70
2018-06-20T17:05:40.086Z,27.60
2018-06-20T17:08:08.577Z,27.50
2018-06-20T17:10:37.038Z,27.50
2018-06-20T17:13:10.970Z,27.40
2018-06-20T17:15:44.649Z,27.50
2018-06-20T17:18:18.483Z,27.50
2018-06-20T17:20:52.344Z,27.50
2018-06-20T17:23:25.981Z,27.50
2018-06-20T17:25:54.412Z,27.40
2018-06-20T17:28:22.838Z,27.30
2018-06-20T17:30:51.325Z,27.40
2018-06-20T17:33:19.740Z,27.40
2018-06-20T17:35:48.235Z,27.40
2018-06-20T17:38:16.626Z,27.60
2018-06-20T17:40:45.107Z,27.50
2018-06-20T17:43:13.475Z,27.50
2018-06-20T17:45:41.894Z,27.50
2018-06-20T17:48:10.371Z,27.40
2018-06-20T17:50:38.902Z,27.40
2018-06-20T17:53:07.374Z,27.40
2018-06-20T17:55:35.828Z,27.40
2018-06-20T17:58:04.524Z,27.50
2018-06-20T18:00:36.873Z,27.50
2018-06-20T18:03:05.456Z,27.40
2018-06-20T18:06:39.575Z,27.40
2018-06-20T18:09:13.284Z,27.30
2018-06-20T18:11:47.000Z,27.30
2018-06-20T18:14:20.855Z,27.20
2018-06-20T18:16:54.645Z,27.20
2018-06-20T18:19:23.063Z,27.10
2018-06-20T18:21:51.574Z,27.00
2018-06-20T18:24:20.014Z,26.90
2018-06-20T18:26:48.583Z,27.00
2018-06-20T18:29:17.010Z,27.00
2018-06-20T18:34:14.334Z,26.80
2018-06-20T18:36:42.776Z,26.80
2018-06-20T18:39:11.932Z,26.80
2018-06-20T18:41:40.432Z,26.70
2018-06-20T18:44:08.870Z,26.70
2018-06-20T18:46:37.439Z,26.80
2018-06-20T18:49:05.904Z,26.70
2018-06-20T18:51:34.346Z,26.70
2018-06-20T18:54:02.793Z,26.70
2018-06-20T18:56:31.231Z,26.60
2018-06-20T18:59:05.037Z,26.60
2018-06-20T19:03:46.077Z,26.40
2018-06-20T19:06:20.956Z,26.40
2018-06-20T19:08:52.457Z,26.30
2018-06-20T19:11:20.871Z,26.30
2018-06-20T19:13:49.350Z,26.30
2018-06-20T19:16:17.898Z,26.20
2018-06-20T19:18:46.275Z,26.20
2018-06-20T19:21:14.738Z,26.00
2018-06-20T19:23:43.235Z,26.00
2018-06-20T19:26:11.850Z,26.00
2018-06-20T19:28:40.336Z,25.90
2018-06-20T19:31:08.909Z,25.90
2018-06-20T19:33:37.438Z,25.80
2018-06-20T19:36:05.959Z,25.70
2018-06-20T19:38:34.390Z,25.60
2018-06-20T19:41:02.856Z,25.50
2018-06-20T19:43:31.340Z,25.50
2018-06-20T19:45:59.811Z,25.40
2018-06-20T19:48:28.253Z,25.30
2018-06-20T19:50:56.691Z,25.30
2018-06-20T19:53:25.152Z,25.20
2018-06-20T19:55:53.610Z,25.20
2018-06-20T19:58:22.753Z,25.10
2018-06-20T20:00:51.146Z,25.00
2018-06-20T20:03:19.670Z,25.00
2018-06-20T20:05:48.057Z,24.90
2018-06-20T20:11:06.766Z,24.70
2018-06-20T20:13:35.186Z,24.70
2018-06-20T20:16:03.642Z,24.60
2018-06-20T20:18:32.143Z,24.60
2018-06-20T20:21:00.572Z,24.40
2018-06-20T20:23:29.091Z,24.40
2018-06-20T20:25:57.490Z,24.30
2018-06-20T20:28:26.159Z,24.30
2018-06-20T20:30:54.592Z,24.20
2018-06-20T20:33:23.017Z,24.20
2018-06-20T20:35:51.463Z,24.10
2018-06-20T20:38:19.857Z,24.20
2018-06-20T20:40:48.396Z,24.20
2018-06-20T20:43:16.844Z,24.10
2018-06-20T20:45:45.244Z,24.20
2018-06-20T20:48:13.628Z,24.10
2018-06-20T20:50:42.628Z,24.10
2018-06-20T20:53:11.022Z,24.10
2018-06-20T20:55:39.489Z,24.00
2018-06-20T20:58:07.913Z,24.00
2018-06-20T21:00:36.356Z,23.90
2018-06-20T21:03:04.869Z,23.80
2018-06-20T21:05:33.295Z,23.80
2018-06-20T21:08:01.753Z,23.80
2018-06-20T21:10:31.755Z,23.80
2018-06-20T21:13:00.230Z,23.80
2018-06-20T21:15:28.668Z,23.80
2018-06-20T21:17:57.110Z,23.80
2018-06-20T21:20:25.605Z,23.80
2018-06-20T21:22:53.989Z,23.80
2018-06-20T21:25:22.420Z,23.80
2018-06-20T21:27:50.920Z,23.80
2018-06-20T21:30:19.362Z,23.70
2018-06-20T21:32:47.740Z,23.60
2018-06-20T21:35:16.140Z,23.60
2018-06-20T21:37:44.526Z,23.50
2018-06-20T21:40:13.714Z,23.40
2018-06-20T21:42:42.226Z,23.30
2018-06-20T21:45:10.729Z,23.10
2018-06-20T21:47:39.159Z,23.10
2018-06-20T21:50:07.549Z,23.00
2018-06-20T21:52:35.957Z,22.90
2018-06-20T21:57:32.465Z,22.80
2018-06-20T22:00:00.883Z,22.70
2018-06-20T22:02:29.339Z,22.70
2018-06-20T22:04:57.754Z,22.60
2018-06-20T22:07:26.190Z,22.60
2018-06-20T22:09:55.450Z,22.50
2018-06-20T22:12:24.027Z,22.50
2018-06-20T22:14:52.548Z,22.40
2018-06-20T22:17:20.933Z,22.40
2018-06-20T22:19:49.386Z,22.40
2018-06-20T22:22:17.874Z,22.40
2018-06-20T22:24:46.404Z,22.40
2018-06-20T22:27:14.873Z,22.40
2018-06-20T22:29:43.276Z,22.40
2018-06-20T22:32:12.327Z,22.40
2018-06-20T22:34:40.744Z,22.30
2018-06-20T22:37:09.774Z,22.30
2018-06-20T22:39:38.116Z,22.30
2018-06-20T22:42:06.504Z,22.20
2018-06-20T22:44:34.893Z,22.20
2018-06-20T22:47:03.280Z,22.20
2018-06-20T22:49:31.681Z,22.10
2018-06-20T22:52:00.085Z,22.10
2018-06-20T22:54:28.503Z,22.10
2018-06-20T22:56:56.893Z,22.10
2018-06-20T22:59:25.271Z,22.00
2018-06-20T23:01:53.817Z,22.00
2018-06-20T23:04:22.284Z,22.00
2018-06-20T23:06:50.711Z,22.00
2018-06-20T23:09:19.136Z,22.00
2018-06-20T23:11:48.672Z,22.00
2018-06-20T23:14:17.129Z,21.90
2018-06-20T23:16:45.536Z,21.90
2018-06-20T23:19:13.958Z,21.80
2018-06-20T23:21:42.856Z,21.80
2018-06-20T23:24:11.231Z,21.70
2018-06-20T23:26:39.587Z,21.80
2018-06-20T23:29:08.002Z,21.70
2018-06-20T23:31:36.409Z,21.70
2018-06-20T23:34:04.880Z,21.60
2018-06-20T23:36:33.260Z,21.60
2018-06-20T23:39:01.656Z,21.60
2018-06-20T23:41:30.047Z,21.70
2018-06-20T23:43:58.487Z,21.60
2018-06-20T23:46:26.877Z,21.50
2018-06-20T23:48:55.465Z,21.50
2018-06-20T23:51:23.874Z,21.40
2018-06-20T23:53:52.275Z,21.40
2018-06-20T23:56:20.662Z,21.40
2018-06-20T23:58:49.046Z,21.40
